Time;durP1;ratioP1;P1;durP2;ratioP2;P2;SDS_P1;SDS_P2;PMS_P1;PMS_P2;Temp;Humidity;BMP_temperature;BMP_pressure;BME280_temperature;BME280_humidity;BME280_pressure;Samples;Min_cycle;Max_cycle;Signal;HPM_P1;HPM_P2
2022/01/19 00:01:05;;;;;;;0.00;0.00;;;;;;;;;;5032550;28;20231;-67
2022/01/19 00:03:32;;;;;;;0.00;0.00;;;;;;;;;;5030717;28;20199;-67
2022/01/19 00:06:00;;;;;;;0.70;0.70;;;;;;;;;;5036161;28;20214;-68
2022/01/19 00:08:28;;;;;;;0.00;0.00;;;;;;;;;;5033745;28;20221;-67
2022/01/19 00:10:57;;;;;;;0.00;0.00;;;;;;;;;;5030318;28;20200;-68
2022/01/19 00:13:25;;;;;;;0.00;0.00;;;;;;;;;;5037363;28;20595;-68
2022/01/19 00:15:53;;;;;;;0.00;0.00;;;;;;;;;;5032333;28;20688;-68
2022/01/19 00:18:24;;;;;;;0.43;0.40;;;;;;;;;;5035105;28;20196;-67
2022/01/19 00:20:52;;;;;;;6.97;1.80;;;;;;;;;;5036049;28;20231;-67
2022/01/19 00:23:19;;;;;;;0.00;0.00;;;;;;;;;;5032435;28;20202;-67
2022/01/19 00:25:47;;;;;;;0.00;0.00;;;;;;;;;;5029674;28;20210;-68
2022/01/19 00:28:16;;;;;;;0.47;0.47;;;;;;;;;;5033551;28;20569;-67
2022/01/19 00:30:44;;;;;;;0.00;0.00;;;;;;;;;;5031618;28;20195;-67
2022/01/19 00:33:12;;;;;;;0.00;0.00;;;;;;;;;;5032231;28;20504;-68
2022/01/19 00:35:40;;;;;;;0.00;0.00;;;;;;;;;;5033074;28;20203;-68
2022/01/19 00:38:08;;;;;;;0.20;0.20;;;;;;;;;;5030418;28;20561;-68
2022/01/19 00:40:36;;;;;;;0.00;0.00;;;;;;;;;;5032056;28;20669;-68
2022/01/19 00:43:03;;;;;;;0.00;0.00;;;;;;;;;;5031359;28;20577;-68
2022/01/19 00:45:32;;;;;;;0.00;0.00;;;;;;;;;;5033139;28;20329;-67
2022/01/19 00:48:00;;;;;;;0.00;0.00;;;;;;;;;;5035134;28;20660;-68
2022/01/19 00:50:29;;;;;;;0.00;0.00;;;;;;;;;;5029741;28;20200;-67
2022/01/19 00:52:56;;;;;;;0.00;0.00;;;;;;;;;;5030174;28;20241;-67
2022/01/19 00:55:25;;;;;;;0.27;0.27;;;;;;;;;;5029616;28;21052;-67
2022/01/19 00:57:52;;;;;;;0.00;0.00;;;;;;;;;;5030598;28;20200;-67
2022/01/19 01:00:21;;;;;;;0.00;0.00;;;;;;;;;;5031783;28;20215;-67
2022/01/19 01:02:50;;;;;;;0.30;0.30;;;;;;;;;;5031926;28;20219;-67
2022/01/19 01:05:18;;;;;;;0.00;0.00;;;;;;;;;;5030754;28;20209;-67
2022/01/19 01:07:45;;;;;;;0.00;0.00;;;;;;;;;;5030070;28;20196;-67
2022/01/19 01:10:13;;;;;;;0.17;0.17;;;;;;;;;;5031595;28;20619;-67
2022/01/19 01:12:47;;;;;;;0.00;0.00;;;;;;;;;;5036897;28;20196;-68
2022/01/19 01:15:28;;;;;;;0.00;0.00;;;;;;;;;;5030326;28;20525;-67
2022/01/19 01:20:42;;;;;;;0.00;0.00;;;;;;;;;;5032219;28;20734;-68
2022/01/19 01:23:10;;;;;;;0.00;0.00;;;;;;;;;;5029999;28;20208;-68
2022/01/19 01:25:38;;;;;;;2.53;2.43;;;;;;;;;;5029657;28;20193;-68
2022/01/19 01:28:06;;;;;;;0.00;0.00;;;;;;;;;;5029406;28;20215;-68
2022/01/19 01:30:33;;;;;;;0.00;0.00;;;;;;;;;;5030453;28;20677;-68
2022/01/19 01:33:02;;;;;;;0.10;0.10;;;;;;;;;;5031762;28;20203;-70
2022/01/19 01:35:30;;;;;;;0.00;0.00;;;;;;;;;;5030085;28;20258;-68
2022/01/19 01:37:57;;;;;;;0.00;0.00;;;;;;;;;;5031598;28;20196;-68
2022/01/19 01:40:26;;;;;;;0.00;0.00;;;;;;;;;;5031298;28;20204;-67
2022/01/19 01:42:54;;;;;;;0.00;0.00;;;;;;;;;;5031446;28;20200;-68
2022/01/19 01:45:26;;;;;;;0.00;0.00;;;;;;;;;;5031916;28;20200;-68
2022/01/19 01:48:03;;;;;;;0.00;0.00;;;;;;;;;;5031193;28;20188;-67
2022/01/19 01:53:28;;;;;;;0.00;0.00;;;;;;;;;;5031621;28;20203;-68
2022/01/19 01:55:56;;;;;;;0.00;0.00;;;;;;;;;;5032328;28;20328;-67
2022/01/19 01:58:23;;;;;;;0.00;0.00;;;;;;;;;;5033221;28;20204;-68
2022/01/19 02:00:51;;;;;;;0.43;0.43;;;;;;;;;;5030216;28;20227;-67
2022/01/19 02:03:18;;;;;;;0.00;0.00;;;;;;;;;;5032154;28;20200;-67
2022/01/19 02:06:07;;;;;;;0.00;0.00;;;;;;;;;;5029421;28;20545;-67
2022/01/19 02:08:40;;;;;;;0.00;0.00;;;;;;;;;;5032056;28;20203;-68
2022/01/19 02:11:33;;;;;;;0.00;0.00;;;;;;;;;;5031574;28;20299;-67
2022/01/19 02:21:37;;;;;;;0.00;0.00;;;;;;;;;;4981698;28;20198;-68
2022/01/19 02:22:30;;;;;;;0.00;0.00;;;;;;;;;;5035776;28;20239;-68
2022/01/19 02:24:58;;;;;;;0.07;0.07;;;;;;;;;;5031345;28;20783;-67
2022/01/19 02:31:08;;;;;;;0.00;0.00;;;;;;;;;;5010553;28;20205;-67
2022/01/19 02:41:58;;;;;;;0.00;0.00;;;;;;;;;;5028359;28;20230;-69
2022/01/19 02:44:40;;;;;;;0.00;0.00;;;;;;;;;;5030823;28;20208;-67
2022/01/19 02:49:53;;;;;;;0.00;0.00;;;;;;;;;;5029420;28;20306;-67
2022/01/19 02:52:22;;;;;;;0.00;0.00;;;;;;;;;;5032346;28;20206;-67
2022/01/19 02:54:51;;;;;;;0.00;0.00;;;;;;;;;;5031283;28;20280;-68
2022/01/19 02:57:23;;;;;;;0.00;0.00;;;;;;;;;;5034722;28;20187;-68
2022/01/19 03:06:17;;;;;;;0.00;0.00;;;;;;;;;;5034092;28;20216;-68
2022/01/19 03:10:55;;;;;;;0.00;0.00;;;;;;;;;;5037333;28;20258;-67
2022/01/19 03:13:22;;;;;;;0.00;0.00;;;;;;;;;;5031793;28;20584;-68
2022/01/19 03:15:50;;;;;;;0.00;0.00;;;;;;;;;;5035102;28;20289;-67
2022/01/19 03:18:17;;;;;;;0.00;0.00;;;;;;;;;;5032688;28;20204;-67
2022/01/19 03:20:44;;;;;;;0.00;0.00;;;;;;;;;;5034379;28;20200;-67
2022/01/19 03:23:18;;;;;;;0.00;0.00;;;;;;;;;;5035382;28;22153;-68
2022/01/19 03:25:46;;;;;;;0.00;0.00;;;;;;;;;;5035460;28;20668;-67
2022/01/19 03:28:14;;;;;;;0.00;0.00;;;;;;;;;;5033312;28;20211;-67
2022/01/19 03:30:42;;;;;;;0.00;0.00;;;;;;;;;;5033012;28;20553;-67
2022/01/19 03:33:09;;;;;;;0.00;0.00;;;;;;;;;;5030243;28;20203;-68
2022/01/19 03:35:38;;;;;;;0.00;0.00;;;;;;;;;;5031883;28;20203;-67
2022/01/19 03:38:05;;;;;;;0.00;0.00;;;;;;;;;;5030371;28;20210;-68
2022/01/19 03:40:33;;;;;;;0.00;0.00;;;;;;;;;;5033055;28;20195;-68
2022/01/19 03:43:00;;;;;;;0.00;0.00;;;;;;;;;;5034428;28;21274;-67
2022/01/19 03:45:32;;;;;;;0.00;0.00;;;;;;;;;;5034777;28;20207;-67
2022/01/19 03:48:15;;;;;;;0.20;0.20;;;;;;;;;;5033630;28;20285;-67
2022/01/19 03:50:42;;;;;;;0.00;0.00;;;;;;;;;;5034569;28;20199;-67
2022/01/19 03:53:09;;;;;;;0.00;0.00;;;;;;;;;;5033473;28;20217;-67
2022/01/19 03:55:37;;;;;;;0.00;0.00;;;;;;;;;;5034349;28;20604;-67
2022/01/19 03:58:04;;;;;;;0.00;0.00;;;;;;;;;;5031922;28;20192;-67
2022/01/19 04:00:36;;;;;;;0.00;0.00;;;;;;;;;;5032969;28;20195;-67
2022/01/19 04:03:06;;;;;;;0.00;0.00;;;;;;;;;;5033544;28;20716;-67
2022/01/19 04:05:42;;;;;;;0.00;0.00;;;;;;;;;;5032616;28;20709;-67
2022/01/19 04:08:10;;;;;;;0.00;0.00;;;;;;;;;;5035143;28;20640;-67
2022/01/19 04:10:39;;;;;;;0.00;0.00;;;;;;;;;;5032991;28;20200;-66
2022/01/19 04:13:22;;;;;;;0.00;0.00;;;;;;;;;;5030884;28;20193;-66
2022/01/19 04:15:51;;;;;;;5.53;5.10;;;;;;;;;;5034806;28;20208;-67
2022/01/19 04:18:19;;;;;;;2.23;2.13;;;;;;;;;;5031018;28;20622;-67
2022/01/19 04:20:50;;;;;;;0.00;0.00;;;;;;;;;;5032767;28;20193;-66
2022/01/19 04:23:18;;;;;;;0.00;0.00;;;;;;;;;;5033608;28;20732;-67
2022/01/19 04:25:46;;;;;;;0.10;0.10;;;;;;;;;;5035443;28;20211;-67
2022/01/19 04:28:14;;;;;;;0.00;0.00;;;;;;;;;;5034281;28;20696;-67
2022/01/19 04:30:43;;;;;;;0.00;0.00;;;;;;;;;;5035240;28;20199;-67
2022/01/19 04:33:16;;;;;;;0.00;0.00;;;;;;;;;;5034508;28;20192;-67
2022/01/19 04:35:50;;;;;;;0.00;0.00;;;;;;;;;;5032581;28;20195;-66
2022/01/19 04:39:04;;;;;;;0.00;0.00;;;;;;;;;;5031902;28;20610;-66
2022/01/19 04:44:25;;;;;;;0.20;0.20;;;;;;;;;;5031423;28;20215;-67
2022/01/19 05:03:45;;;;;;;0.00;0.00;;;;;;;;;;5031361;28;20659;-67
2022/01/19 05:06:17;;;;;;;0.23;0.23;;;;;;;;;;5030777;28;20199;-68
2022/01/19 05:09:01;;;;;;;0.00;0.00;;;;;;;;;;5034249;28;20200;-67
2022/01/19 05:14:13;;;;;;;0.00;0.00;;;;;;;;;;5034251;28;20215;-68
2022/01/19 05:16:41;;;;;;;0.00;0.00;;;;;;;;;;5031387;28;20689;-67
2022/01/19 05:19:08;;;;;;;0.00;0.00;;;;;;;;;;5035458;28;20612;-67
2022/01/19 05:21:37;;;;;;;0.00;0.00;;;;;;;;;;5030899;28;20230;-66
2022/01/19 05:24:07;;;;;;;0.00;0.00;;;;;;;;;;5033409;28;20211;-67
2022/01/19 05:26:37;;;;;;;0.00;0.00;;;;;;;;;;5030351;28;20204;-68
2022/01/19 05:29:04;;;;;;;0.33;0.33;;;;;;;;;;5032485;28;20196;-67
2022/01/19 05:31:32;;;;;;;0.37;0.33;;;;;;;;;;5029632;28;20581;-67
2022/01/19 05:33:59;;;;;;;0.00;0.00;;;;;;;;;;5031416;28;20593;-67
2022/01/19 05:36:26;;;;;;;0.10;0.10;;;;;;;;;;5033679;28;20207;-67
2022/01/19 05:38:55;;;;;;;1.10;1.07;;;;;;;;;;5027692;28;20215;-67
2022/01/19 05:41:23;;;;;;;0.00;0.00;;;;;;;;;;5033148;28;20283;-67
2022/01/19 05:43:50;;;;;;;0.00;0.00;;;;;;;;;;5026548;28;20214;-67
2022/01/19 05:46:18;;;;;;;0.60;0.60;;;;;;;;;;5032905;28;20195;-66
2022/01/19 05:48:45;;;;;;;0.00;0.00;;;;;;;;;;5031028;28;20688;-66
2022/01/19 05:51:12;;;;;;;0.40;0.40;;;;;;;;;;5030570;28;20215;-67
2022/01/19 05:53:40;;;;;;;0.33;0.33;;;;;;;;;;5031497;28;20204;-67
2022/01/19 05:56:09;;;;;;;0.10;0.10;;;;;;;;;;5031615;28;20202;-68
2022/01/19 05:58:37;;;;;;;0.00;0.00;;;;;;;;;;5029821;28;20198;-67
2022/01/19 06:01:04;;;;;;;0.00;0.00;;;;;;;;;;5030194;28;20583;-67
2022/01/19 06:03:31;;;;;;;0.00;0.00;;;;;;;;;;5031341;28;20224;-67
2022/01/19 06:05:59;;;;;;;0.50;0.50;;;;;;;;;;5031874;28;20235;-67
2022/01/19 06:08:42;;;;;;;0.00;0.00;;;;;;;;;;5032838;28;20707;-67
2022/01/19 06:11:11;;;;;;;0.40;0.40;;;;;;;;;;5028358;28;20208;-68
2022/01/19 06:13:39;;;;;;;0.40;0.40;;;;;;;;;;5032862;28;20864;-67
2022/01/19 06:16:07;;;;;;;0.00;0.00;;;;;;;;;;5028817;28;20604;-67
2022/01/19 06:18:34;;;;;;;0.33;0.33;;;;;;;;;;5034193;28;20236;-67
2022/01/19 06:21:02;;;;;;;0.50;0.50;;;;;;;;;;5030750;28;20210;-67
2022/01/19 06:23:29;;;;;;;4.67;3.43;;;;;;;;;;5028119;28;20696;-67
2022/01/19 06:25:56;;;;;;;1.93;1.60;;;;;;;;;;5031422;28;20200;-67
2022/01/19 06:28:25;;;;;;;2.63;2.13;;;;;;;;;;5028852;28;20200;-67
2022/01/19 06:30:52;;;;;;;1.53;1.20;;;;;;;;;;5031643;28;20196;-68
2022/01/19 06:33:20;;;;;;;1.93;1.23;;;;;;;;;;5031857;28;20202;-67
2022/01/19 06:35:47;;;;;;;1.63;1.53;;;;;;;;;;5030372;28;20210;-68
2022/01/19 06:38:15;;;;;;;0.70;0.70;;;;;;;;;;5029033;28;20657;-67
2022/01/19 06:40:42;;;;;;;0.00;0.00;;;;;;;;;;5029792;28;20208;-68
2022/01/19 06:43:09;;;;;;;0.77;0.63;;;;;;;;;;5029332;28;20230;-67
2022/01/19 06:45:38;;;;;;;0.73;0.73;;;;;;;;;;5031386;28;20712;-67
2022/01/19 06:48:06;;;;;;;0.10;0.10;;;;;;;;;;5027219;28;20669;-68
2022/01/19 06:50:33;;;;;;;0.57;0.57;;;;;;;;;;5030691;28;20685;-67
2022/01/19 06:53:01;;;;;;;0.70;0.70;;;;;;;;;;5029970;28;20195;-67
2022/01/19 06:55:28;;;;;;;0.00;0.00;;;;;;;;;;5030019;28;20204;-67
2022/01/19 06:57:56;;;;;;;0.03;0.03;;;;;;;;;;5031534;28;20572;-67
2022/01/19 07:00:23;;;;;;;1.80;0.83;;;;;;;;;;5029222;28;20212;-67
2022/01/19 07:02:53;;;;;;;1.40;1.23;;;;;;;;;;5033670;28;20324;-67
2022/01/19 07:05:20;;;;;;;0.27;0.27;;;;;;;;;;5032139;28;21064;-67
2022/01/19 07:07:48;;;;;;;1.53;1.43;;;;;;;;;;5032718;28;20209;-66
2022/01/19 07:10:15;;;;;;;0.00;0.00;;;;;;;;;;5029325;28;20204;-66
2022/01/19 07:12:42;;;;;;;0.40;0.40;;;;;;;;;;5033831;28;20197;-67
2022/01/19 07:15:10;;;;;;;9.73;1.27;;;;;;;;;;5030064;28;20196;-67
2022/01/19 07:17:38;;;;;;;1.13;1.13;;;;;;;;;;5031058;28;20676;-67
2022/01/19 07:20:07;;;;;;;0.00;0.00;;;;;;;;;;5033925;28;20593;-67
2022/01/19 07:22:35;;;;;;;1.53;1.50;;;;;;;;;;5028998;28;20239;-67
2022/01/19 07:25:02;;;;;;;2.70;1.13;;;;;;;;;;5033977;28;20196;-67
2022/01/19 07:27:30;;;;;;;2.93;2.63;;;;;;;;;;5027387;28;20208;-67
2022/01/19 07:29:57;;;;;;;0.00;0.00;;;;;;;;;;5030881;28;20196;-67
2022/01/19 07:32:29;;;;;;;3.10;2.03;;;;;;;;;;5028729;28;20692;-67
2022/01/19 07:34:56;;;;;;;3.10;1.80;;;;;;;;;;5033214;28;20282;-68
2022/01/19 07:37:25;;;;;;;1.53;1.17;;;;;;;;;;5029855;28;20227;-67
2022/01/19 07:39:53;;;;;;;1.70;0.93;;;;;;;;;;5030729;28;20203;-67
2022/01/19 07:42:21;;;;;;;0.57;0.37;;;;;;;;;;5032582;28;20224;-68
2022/01/19 07:44:49;;;;;;;7.73;3.80;;;;;;;;;;5032229;28;20215;-67
2022/01/19 07:47:17;;;;;;;1.93;1.83;;;;;;;;;;5034586;28;20200;-67
2022/01/19 07:49:44;;;;;;;0.30;0.30;;;;;;;;;;5033494;28;20222;-67
2022/01/19 07:52:12;;;;;;;4.43;3.50;;;;;;;;;;5037662;28;20211;-66
2022/01/19 07:54:41;;;;;;;1.83;1.73;;;;;;;;;;5033181;28;20680;-66
2022/01/19 07:57:08;;;;;;;0.50;0.50;;;;;;;;;;5029975;28;20204;-67
2022/01/19 07:59:36;;;;;;;3.20;0.63;;;;;;;;;;5033735;28;20232;-67
2022/01/19 08:02:03;;;;;;;1.93;1.57;;;;;;;;;;5035824;28;20199;-66
2022/01/19 08:04:31;;;;;;;9.97;4.47;;;;;;;;;;5036887;28;20889;-66
2022/01/19 08:06:58;;;;;;;0.97;0.97;;;;;;;;;;5035541;28;20606;-67
2022/01/19 08:09:26;;;;;;;1.87;1.77;;;;;;;;;;5034443;28;20566;-67
2022/01/19 08:11:55;;;;;;;0.67;0.67;;;;;;;;;;5032432;28;20199;-68
2022/01/19 08:14:24;;;;;;;4.90;2.43;;;;;;;;;;5034035;28;20201;-68
2022/01/19 08:16:51;;;;;;;1.47;1.37;;;;;;;;;;5032585;28;20196;-67
2022/01/19 08:19:19;;;;;;;0.30;0.30;;;;;;;;;;5033707;28;20241;-70
2022/01/19 08:21:46;;;;;;;1.10;1.10;;;;;;;;;;5031382;28;20214;-71
2022/01/19 08:24:13;;;;;;;3.30;1.30;;;;;;;;;;5032429;28;20240;-70
2022/01/19 08:26:41;;;;;;;4.87;3.80;;;;;;;;;;5028639;28;20195;-70
2022/01/19 08:29:10;;;;;;;2.03;1.00;;;;;;;;;;5037142;28;20199;-69
2022/01/19 08:31:37;;;;;;;3.07;2.80;;;;;;;;;;5040390;28;20282;-69
2022/01/19 08:34:05;;;;;;;17.53;5.33;;;;;;;;;;5039784;28;20203;-70
2022/01/19 08:36:32;;;;;;;2.07;1.90;;;;;;;;;;5039896;28;20218;-70
2022/01/19 08:39:00;;;;;;;4.67;3.23;;;;;;;;;;5039382;28;20202;-71
2022/01/19 08:41:28;;;;;;;2.37;2.23;;;;;;;;;;5039770;28;20203;-69
2022/01/19 08:43:56;;;;;;;6.33;5.70;;;;;;;;;;5038168;28;20220;-70
2022/01/19 08:46:24;;;;;;;8.00;5.60;;;;;;;;;;5038056;28;20258;-70
2022/01/19 08:48:52;;;;;;;4.30;3.93;;;;;;;;;;5035921;28;20691;-70
2022/01/19 08:51:19;;;;;;;2.03;1.93;;;;;;;;;;5038756;28;20649;-70
2022/01/19 08:53:46;;;;;;;4.87;2.93;;;;;;;;;;5041609;28;20265;-70
2022/01/19 08:56:13;;;;;;;6.40;4.57;;;;;;;;;;5035634;28;20245;-70
2022/01/19 08:58:41;;;;;;;3.90;3.10;;;;;;;;;;5039906;28;20211;-70
2022/01/19 09:01:08;;;;;;;3.50;3.20;;;;;;;;;;5037375;28;20200;-70
2022/01/19 09:03:37;;;;;;;1.47;0.93;;;;;;;;;;5042001;28;20231;-70
2022/01/19 09:06:04;;;;;;;13.33;2.93;;;;;;;;;;5035750;28;20675;-70
2022/01/19 09:08:34;;;;;;;4.43;3.23;;;;;;;;;;5033546;28;20724;-70
2022/01/19 09:11:01;;;;;;;3.97;3.47;;;;;;;;;;5030561;28;20227;-70
2022/01/19 09:13:29;;;;;;;7.30;6.47;;;;;;;;;;5029133;28;20592;-71
2022/01/19 09:15:56;;;;;;;2.53;1.30;;;;;;;;;;5029705;28;20214;-70
2022/01/19 09:18:23;;;;;;;2.63;1.57;;;;;;;;;;5026334;28;20214;-70
2022/01/19 09:20:52;;;;;;;4.53;3.53;;;;;;;;;;5027498;28;20211;-70
2022/01/19 09:23:20;;;;;;;7.87;3.50;;;;;;;;;;5029021;28;20243;-69
2022/01/19 09:25:47;;;;;;;5.00;3.87;;;;;;;;;;5028767;28;20188;-69
2022/01/19 09:28:15;;;;;;;4.80;3.67;;;;;;;;;;5034684;28;20199;-70
2022/01/19 09:30:42;;;;;;;7.33;4.80;;;;;;;;;;5032303;28;20192;-70
2022/01/19 09:33:19;;;;;;;7.40;6.37;;;;;;;;;;5029514;28;20199;-70
2022/01/19 09:36:17;;;;;;;2.00;1.70;;;;;;;;;;5028162;28;20210;-70
2022/01/19 09:38:43;;;;;;;6.90;4.57;;;;;;;;;;5031742;28;20576;-72
2022/01/19 09:41:11;;;;;;;2.83;2.63;;;;;;;;;;5035034;28;20202;-71
2022/01/19 09:43:38;;;;;;;7.47;5.07;;;;;;;;;;5032912;28;20329;-72
2022/01/19 09:46:06;;;;;;;1.70;1.60;;;;;;;;;;5036791;28;20200;-68
2022/01/19 09:48:34;;;;;;;0.10;0.10;;;;;;;;;;5033374;28;20944;-71
2022/01/19 09:51:01;;;;;;;9.47;6.47;;;;;;;;;;5032007;28;20265;-71
2022/01/19 09:53:29;;;;;;;1.40;0.83;;;;;;;;;;5031087;28;20206;-71
2022/01/19 09:55:58;;;;;;;7.73;4.47;;;;;;;;;;5029756;28;20208;-71
2022/01/19 09:58:25;;;;;;;4.47;3.83;;;;;;;;;;5033238;28;20731;-70
2022/01/19 10:00:53;;;;;;;3.30;2.80;;;;;;;;;;5029712;28;20195;-70
2022/01/19 10:03:21;;;;;;;1.77;1.67;;;;;;;;;;5028288;28;20992;-70
2022/01/19 10:05:56;;;;;;;7.67;5.20;;;;;;;;;;5028261;28;20285;-71
2022/01/19 10:08:30;;;;;;;3.60;3.03;;;;;;;;;;5027663;28;21059;-70
2022/01/19 10:11:12;;;;;;;1.43;1.37;;;;;;;;;;5027778;28;20188;-70
2022/01/19 10:19:15;;;;;;;1.83;1.73;;;;;;;;;;5034481;28;20231;-71
2022/01/19 10:22:13;;;;;;;0.70;0.70;;;;;;;;;;5031122;28;20200;-72
2022/01/19 10:24:48;;;;;;;2.87;2.67;;;;;;;;;;5003178;28;20220;-73
2022/01/19 10:27:24;;;;;;;5.10;1.60;;;;;;;;;;5027844;28;22168;-71
2022/01/19 10:29:53;;;;;;;0.37;0.20;;;;;;;;;;5028233;28;20195;-71
2022/01/19 10:32:22;;;;;;;0.17;0.17;;;;;;;;;;5027443;28;20668;-71
2022/01/19 10:34:49;;;;;;;5.70;3.57;;;;;;;;;;5028535;28;20229;-69
2022/01/19 10:37:22;;;;;;;4.17;2.17;;;;;;;;;;5029075;28;20191;-71
2022/01/19 10:39:51;;;;;;;0.47;0.47;;;;;;;;;;5028677;28;20203;-70
2022/01/19 10:42:19;;;;;;;0.53;0.53;;;;;;;;;;5026602;28;20195;-71
2022/01/19 10:44:49;;;;;;;8.07;4.40;;;;;;;;;;5028294;28;20225;-71
2022/01/19 10:47:17;;;;;;;2.53;2.10;;;;;;;;;;5027547;28;20195;-71
2022/01/19 10:49:48;;;;;;;4.67;3.20;;;;;;;;;;5036482;28;20335;-71
2022/01/19 10:52:26;;;;;;;2.67;2.47;;;;;;;;;;5026053;28;20203;-71
2022/01/19 10:54:53;;;;;;;4.63;3.60;;;;;;;;;;5026691;28;20204;-71
2022/01/19 10:57:21;;;;;;;3.43;2.77;;;;;;;;;;5026443;28;20191;-71
2022/01/19 10:59:50;;;;;;;1.03;0.87;;;;;;;;;;5032655;28;20202;-71
2022/01/19 11:02:19;;;;;;;4.33;3.67;;;;;;;;;;5029261;28;20208;-71
2022/01/19 11:04:47;;;;;;;9.97;7.03;;;;;;;;;;5028578;28;20220;-71
2022/01/19 11:07:18;;;;;;;3.97;3.23;;;;;;;;;;5027977;28;20203;-66
2022/01/19 11:09:56;;;;;;;1.40;1.37;;;;;;;;;;5030210;28;20204;-70
2022/01/19 11:12:27;;;;;;;8.93;5.20;;;;;;;;;;5032744;28;20277;-71
2022/01/19 11:14:56;;;;;;;1.67;1.00;;;;;;;;;;5032966;28;20274;-70
2022/01/19 11:17:24;;;;;;;2.27;1.50;;;;;;;;;;5029418;28;20207;-71
2022/01/19 11:19:52;;;;;;;4.23;3.60;;;;;;;;;;5032632;28;20317;-71
2022/01/19 11:22:34;;;;;;;6.50;5.83;;;;;;;;;;5030884;28;20215;-71
2022/01/19 11:25:05;;;;;;;12.00;7.97;;;;;;;;;;5028611;28;20227;-70
2022/01/19 11:27:40;;;;;;;2.60;2.37;;;;;;;;;;5030651;28;20340;-66
2022/01/19 11:30:13;;;;;;;4.23;2.67;;;;;;;;;;5033453;28;20418;-71
2022/01/19 11:32:41;;;;;;;2.77;2.47;;;;;;;;;;5031920;28;20195;-70
2022/01/19 11:35:11;;;;;;;7.57;4.40;;;;;;;;;;5029584;28;20200;-70
2022/01/19 11:37:39;;;;;;;4.70;3.97;;;;;;;;;;5032065;28;20196;-71
2022/01/19 11:40:09;;;;;;;1.63;1.53;;;;;;;;;;5038559;28;20189;-72
2022/01/19 11:42:36;;;;;;;5.27;3.80;;;;;;;;;;5039627;28;20196;-70
2022/01/19 11:45:04;;;;;;;9.00;5.87;;;;;;;;;;5031291;28;20237;-71
2022/01/19 11:47:33;;;;;;;8.13;5.03;;;;;;;;;;5031410;28;20277;-72
2022/01/19 11:50:01;;;;;;;2.77;2.53;;;;;;;;;;5032287;28;20272;-71
2022/01/19 11:52:53;;;;;;;7.23;4.37;;;;;;;;;;5031394;28;20218;-71
2022/01/19 11:55:21;;;;;;;1.30;1.30;;;;;;;;;;5031771;28;20200;-72
2022/01/19 11:57:49;;;;;;;2.37;1.97;;;;;;;;;;5031313;28;20203;-70
2022/01/19 12:00:18;;;;;;;6.10;4.33;;;;;;;;;;5036604;28;20536;-70
2022/01/19 12:02:48;;;;;;;3.50;2.43;;;;;;;;;;5031835;28;20196;-71
2022/01/19 12:05:33;;;;;;;2.03;1.43;;;;;;;;;;5032635;28;20227;-71
2022/01/19 12:08:02;;;;;;;1.57;1.47;;;;;;;;;;5030723;28;20215;-69
2022/01/19 12:10:45;;;;;;;7.47;4.90;;;;;;;;;;5032782;28;20208;-70
2022/01/19 12:13:34;;;;;;;10.20;5.87;;;;;;;;;;5030616;28;21835;-71
2022/01/19 12:16:07;;;;;;;5.87;4.13;;;;;;;;;;5023448;28;20778;-71
2022/01/19 12:18:46;;;;;;;2.87;2.63;;;;;;;;;;5017695;28;22291;-71
2022/01/19 12:21:15;;;;;;;7.93;4.43;;;;;;;;;;5012814;28;20200;-71
2022/01/19 12:23:43;;;;;;;2.20;2.10;;;;;;;;;;5010667;28;20227;-71
2022/01/19 12:26:10;;;;;;;8.87;6.63;;;;;;;;;;5009707;28;21867;-70
2022/01/19 12:28:47;;;;;;;1.97;1.77;;;;;;;;;;5010849;28;20207;-71
2022/01/19 12:31:34;;;;;;;3.47;2.90;;;;;;;;;;5012726;28;20246;-70
2022/01/19 12:34:22;;;;;;;5.90;5.40;;;;;;;;;;5012461;28;20196;-72
2022/01/19 12:36:51;;;;;;;4.23;3.97;;;;;;;;;;5022708;28;20207;-71
2022/01/19 12:39:35;;;;;;;8.20;2.80;;;;;;;;;;5018370;28;20204;-70
2022/01/19 12:42:03;;;;;;;2.20;1.63;;;;;;;;;;5012696;28;20223;-71
2022/01/19 12:44:41;;;;;;;4.83;2.43;;;;;;;;;;5019044;28;20326;-71
2022/01/19 12:47:23;;;;;;;2.53;2.03;;;;;;;;;;5009694;28;20204;-71
2022/01/19 12:49:51;;;;;;;7.33;4.17;;;;;;;;;;5017903;28;21034;-71
2022/01/19 12:52:19;;;;;;;6.13;3.13;;;;;;;;;;5011090;28;20712;-70
2022/01/19 12:54:47;;;;;;;4.10;3.20;;;;;;;;;;5008821;28;20195;-69
2022/01/19 12:57:15;;;;;;;4.87;3.33;;;;;;;;;;5006609;28;20257;-70
2022/01/19 12:59:44;;;;;;;3.90;2.17;;;;;;;;;;5026138;28;20235;-70
2022/01/19 13:02:13;;;;;;;1.53;0.90;;;;;;;;;;5044477;28;20203;-70
2022/01/19 13:04:42;;;;;;;2.20;1.87;;;;;;;;;;5034858;28;20230;-70
2022/01/19 13:07:18;;;;;;;4.40;2.53;;;;;;;;;;5041895;28;20195;-70
2022/01/19 13:10:09;;;;;;;5.23;2.70;;;;;;;;;;5035107;28;20923;-70
2022/01/19 13:12:41;;;;;;;1.60;1.50;;;;;;;;;;5030327;28;20417;-70
2022/01/19 13:15:08;;;;;;;6.23;5.33;;;;;;;;;;5035171;28;20302;-70
2022/01/19 13:17:43;;;;;;;1.60;1.50;;;;;;;;;;5035089;28;20611;-69
2022/01/19 13:20:12;;;;;;;5.40;3.90;;;;;;;;;;5036046;28;20238;-70
2022/01/19 13:22:48;;;;;;;5.60;2.20;;;;;;;;;;5033955;28;20565;-71
2022/01/19 13:25:16;;;;;;;1.93;1.67;;;;;;;;;;5033446;28;20224;-70
2022/01/19 13:27:45;;;;;;;6.53;3.90;;;;;;;;;;5036238;28;20298;-71
2022/01/19 13:30:13;;;;;;;32.07;3.37;;;;;;;;;;5030294;28;20210;-70
2022/01/19 13:32:40;;;;;;;2.97;2.47;;;;;;;;;;5032075;28;21048;-71
2022/01/19 13:35:12;;;;;;;5.13;2.70;;;;;;;;;;5030323;28;20203;-70
2022/01/19 13:37:42;;;;;;;5.30;3.90;;;;;;;;;;5031330;28;20635;-70
2022/01/19 13:40:12;;;;;;;3.23;2.53;;;;;;;;;;5034717;28;20210;-71
2022/01/19 13:42:42;;;;;;;11.30;2.73;;;;;;;;;;5034688;28;20191;-71
2022/01/19 13:45:13;;;;;;;3.00;2.10;;;;;;;;;;5029523;28;20219;-70
2022/01/19 13:47:54;;;;;;;1.53;1.40;;;;;;;;;;5030676;28;20860;-72
2022/01/19 13:50:22;;;;;;;1.00;0.93;;;;;;;;;;5028527;28;20302;-72
2022/01/19 13:52:49;;;;;;;3.67;2.77;;;;;;;;;;5027860;28;20199;-72
2022/01/19 13:55:22;;;;;;;2.37;2.17;;;;;;;;;;5031070;28;20614;-72
2022/01/19 13:57:50;;;;;;;0.17;0.17;;;;;;;;;;5039956;28;20207;-71
2022/01/19 14:00:18;;;;;;;0.70;0.70;;;;;;;;;;5035762;28;20211;-71
2022/01/19 14:02:59;;;;;;;1.47;1.37;;;;;;;;;;5031321;28;20203;-71
2022/01/19 14:05:38;;;;;;;0.73;0.73;;;;;;;;;;5037639;28;20234;-70
2022/01/19 14:08:05;;;;;;;1.07;0.97;;;;;;;;;;5035899;28;20205;-71
2022/01/19 14:10:48;;;;;;;2.60;1.53;;;;;;;;;;5041340;28;20660;-71
2022/01/19 14:13:27;;;;;;;2.77;2.57;;;;;;;;;;5028285;28;20203;-71
2022/01/19 14:15:54;;;;;;;1.13;0.87;;;;;;;;;;5030904;28;20261;-71
2022/01/19 14:18:22;;;;;;;3.57;2.97;;;;;;;;;;5027023;28;20196;-72
2022/01/19 14:21:04;;;;;;;9.43;4.17;;;;;;;;;;5030684;28;20670;-72
2022/01/19 14:23:31;;;;;;;0.83;0.33;;;;;;;;;;5030543;28;20199;-71
2022/01/19 14:26:10;;;;;;;2.23;1.97;;;;;;;;;;5030966;28;20261;-71
2022/01/19 14:28:38;;;;;;;3.70;2.27;;;;;;;;;;5030343;28;20567;-71
2022/01/19 14:31:06;;;;;;;3.03;2.17;;;;;;;;;;5025683;28;20203;-71
2022/01/19 14:33:33;;;;;;;1.67;1.43;;;;;;;;;;5026135;28;20200;-71
2022/01/19 14:36:01;;;;;;;3.33;2.27;;;;;;;;;;5027611;28;20581;-70
2022/01/19 14:38:36;;;;;;;1.77;1.67;;;;;;;;;;5027188;28;20195;-71
2022/01/19 14:41:07;;;;;;;0.57;0.57;;;;;;;;;;5033333;28;20649;-71
2022/01/19 14:43:42;;;;;;;0.53;0.33;;;;;;;;;;5028983;28;20199;-71
2022/01/19 14:46:12;;;;;;;0.33;0.33;;;;;;;;;;5026480;28;20234;-70
2022/01/19 14:48:41;;;;;;;0.30;0.30;;;;;;;;;;5030350;28;20196;-71
2022/01/19 14:51:23;;;;;;;2.43;1.57;;;;;;;;;;5030576;28;20250;-71
2022/01/19 14:53:51;;;;;;;0.80;0.80;;;;;;;;;;5036232;28;20980;-71
2022/01/19 14:56:18;;;;;;;1.97;1.63;;;;;;;;;;5034152;28;20211;-72
2022/01/19 14:58:47;;;;;;;1.00;0.90;;;;;;;;;;5042518;28;20228;-73
2022/01/19 15:01:14;;;;;;;0.70;0.57;;;;;;;;;;5051997;28;20199;-73
2022/01/19 15:03:43;;;;;;;1.03;0.93;;;;;;;;;;5041438;28;20277;-72
2022/01/19 15:06:11;;;;;;;0.40;0.23;;;;;;;;;;5039992;28;20848;-76
2022/01/19 15:08:39;;;;;;;1.53;1.50;;;;;;;;;;5042018;28;20199;-69
2022/01/19 15:11:06;;;;;;;2.57;1.50;;;;;;;;;;5040771;28;20200;-73
2022/01/19 15:13:33;;;;;;;1.70;1.50;;;;;;;;;;5040786;28;20208;-71
2022/01/19 15:16:02;;;;;;;1.10;1.00;;;;;;;;;;5041481;28;20201;-73
2022/01/19 15:18:30;;;;;;;1.70;1.00;;;;;;;;;;5042719;28;20207;-71
2022/01/19 15:20:58;;;;;;;1.03;0.70;;;;;;;;;;5041774;28;21639;-72
2022/01/19 15:23:25;;;;;;;1.00;0.93;;;;;;;;;;5040730;28;20203;-73
2022/01/19 15:25:52;;;;;;;2.70;2.03;;;;;;;;;;5041054;28;20235;-69
2022/01/19 15:28:20;;;;;;;0.00;0.00;;;;;;;;;;5041794;28;20199;-71
2022/01/19 15:30:49;;;;;;;0.90;0.83;;;;;;;;;;5041807;28;20196;-71
2022/01/19 15:33:18;;;;;;;1.13;0.97;;;;;;;;;;5039763;28;20207;-70
2022/01/19 15:35:47;;;;;;;0.60;0.60;;;;;;;;;;5039575;28;20242;-69
2022/01/19 15:38:14;;;;;;;0.90;0.77;;;;;;;;;;5038180;28;20200;-75
2022/01/19 15:40:43;;;;;;;0.73;0.73;;;;;;;;;;5041200;28;20196;-70
2022/01/19 15:43:14;;;;;;;1.83;1.73;;;;;;;;;;5035902;28;20341;-73
2022/01/19 15:45:42;;;;;;;0.80;0.80;;;;;;;;;;5041652;28;20223;-73
2022/01/19 15:48:15;;;;;;;0.57;0.57;;;;;;;;;;5043018;28;20199;-72
2022/01/19 15:50:44;;;;;;;0.43;0.43;;;;;;;;;;5040621;28;20204;-73
2022/01/19 15:53:11;;;;;;;1.37;0.87;;;;;;;;;;5041212;28;20203;-71
2022/01/19 15:55:39;;;;;;;0.83;0.83;;;;;;;;;;5041355;28;20192;-72
2022/01/19 15:58:06;;;;;;;0.00;0.00;;;;;;;;;;5046081;28;20218;-74
2022/01/19 16:00:34;;;;;;;0.20;0.20;;;;;;;;;;5044383;28;20203;-74
2022/01/19 16:03:04;;;;;;;0.63;0.63;;;;;;;;;;5041265;28;20210;-71